createdAt,value
2017-03-04T00:00:43.833Z,36.21
2017-03-04T00:01:54.490Z,36.11
2017-03-04T00:03:04.750Z,36.31
2017-03-04T00:04:15.327Z,36.21
2017-03-04T00:05:25.604Z,36.21
2017-03-04T00:06:35.508Z,36.21
2017-03-04T00:07:45.403Z,36.11
2017-03-04T00:08:55.718Z,36.21
2017-03-04T00:10:06.160Z,36.21
2017-03-04T00:11:16.427Z,36.1
2017-03-04T00:12:26.687Z,36.21
2017-03-04T00:13:36.967Z,36.21
2017-03-04T00:14:46.853Z,36.31
2017-03-04T00:15:57.275Z,36.11
2017-03-04T00:17:07.567Z,36.31
2017-03-04T00:18:18.223Z,36.41
2017-03-04T00:19:28.125Z,36.21
2017-03-04T00:20:38.388Z,36.11
2017-03-04T00:21:49.200Z,36.21
2017-03-04T00:22:59.844Z,36.11
2017-03-04T00:24:10.515Z,36.21
2017-03-04T00:25:20.808Z,36.21
2017-03-04T00:26:31.458Z,36.31
2017-03-04T00:27:42.217Z,36.41
2017-03-04T00:28:52.096Z,36.02
2017-03-04T00:30:02.772Z,36.21
2017-03-04T00:31:13.022Z,36.21
2017-03-04T00:32:23.314Z,36.31
2017-03-04T00:33:33.698Z,36.21
2017-03-04T00:34:44.365Z,36.11
2017-03-04T00:35:54.663Z,36.31
2017-03-04T00:37:05.357Z,36.41
2017-03-04T00:38:16.036Z,36.11
2017-03-04T00:39:26.001Z,36.41
2017-03-04T00:40:36.273Z,36.21
2017-03-04T00:41:46.153Z,36.41
2017-03-04T00:42:56.433Z,36.21
2017-03-04T00:44:06.310Z,36.11
2017-03-04T00:45:16.696Z,36.21
2017-03-04T00:46:26.967Z,36.21
2017-03-04T00:47:37.257Z,36.41
2017-03-04T00:48:47.919Z,36.21
2017-03-04T00:49:57.409Z,36.11
2017-03-04T00:51:08.739Z,36.31
2017-03-04T00:52:19.406Z,36.41
2017-03-04T00:53:30.092Z,36.41
2017-03-04T00:54:39.983Z,36.41
2017-03-04T00:55:49.887Z,36.21
2017-03-04T00:57:00.699Z,36.51
2017-03-04T00:58:11.362Z,36.41
2017-03-04T00:59:22.028Z,36.11
2017-03-04T01:00:32.301Z,36.51
2017-03-04T01:01:42.973Z,36.31
2017-03-04T01:02:53.404Z,36.31
2017-03-04T01:04:03.303Z,36.11
2017-03-04T01:05:13.964Z,36.31
2017-03-04T01:06:24.633Z,36.31
2017-03-04T01:07:34.899Z,36.31
2017-03-04T01:08:45.699Z,36.41
2017-03-04T01:09:55.959Z,36.31
2017-03-04T01:11:06.604Z,36.31
2017-03-04T01:12:17.253Z,36.31
2017-03-04T01:13:27.505Z,36.31
2017-03-04T01:14:38.317Z,36.21
2017-03-04T01:15:48.964Z,36.11
2017-03-04T01:16:58.867Z,36.21
2017-03-04T01:18:08.740Z,36.11
2017-03-04T01:19:19.404Z,36.41
2017-03-04T01:20:29.047Z,36.31
2017-03-04T01:21:39.714Z,36.31
2017-03-04T01:22:50.369Z,36.41
2017-03-04T01:24:00.653Z,36.41
2017-03-04T01:25:11.323Z,36.41
2017-03-04T01:26:21.356Z,36.31
2017-03-04T01:27:30.844Z,36.31
2017-03-04T01:28:41.129Z,35.93
2017-03-04T01:29:51.399Z,36.31
2017-03-04T01:31:01.667Z,36.31
2017-03-04T01:32:12.100Z,36.11
2017-03-04T01:33:22.395Z,36.31
2017-03-04T01:34:32.676Z,36.21
2017-03-04T01:35:42.936Z,36.31
2017-03-04T01:36:53.580Z,36.21
2017-03-04T01:38:04.371Z,36.31
2017-03-04T01:39:14.945Z,36.11
2017-03-04T01:40:25.586Z,36.31
2017-03-04T01:41:35.454Z,35.93
2017-03-04T01:42:46.107Z,36.02
2017-03-04T01:43:56.512Z,36.41
2017-03-04T01:45:06.772Z,36.21
2017-03-04T01:46:17.449Z,36.11
2017-03-04T01:47:27.359Z,36.41
2017-03-04T01:48:37.643Z,36.21
2017-03-04T01:49:48.475Z,36.41
2017-03-04T01:50:58.397Z,36.11
2017-03-04T01:52:08.676Z,36.31
2017-03-04T01:53:18.945Z,36.21
2017-03-04T01:54:29.595Z,36.31
2017-03-04T01:55:40.396Z,36.11
2017-03-04T01:56:50.279Z,36.41
2017-03-04T01:58:00.561Z,36.21
2017-03-04T01:59:11.231Z,36.21
2017-03-04T02:00:21.498Z,36.41
2017-03-04T02:01:31.560Z,36.41
2017-03-04T02:02:41.853Z,36.41
2017-03-04T02:03:52.514Z,36.41
2017-03-04T02:05:02.408Z,36.21
2017-03-04T02:06:13.057Z,36.21
2017-03-04T02:07:23.856Z,36.31
2017-03-04T02:08:34.500Z,36.21
2017-03-04T02:09:44.803Z,36.31
2017-03-04T02:10:54.705Z,36.31
2017-03-04T02:12:05.362Z,36.31
2017-03-04T02:13:17.130Z,36.31
2017-03-04T02:14:27.395Z,36.41
2017-03-04T02:15:38.062Z,36.31
2017-03-04T02:16:48.349Z,36.31
2017-03-04T02:17:59.004Z,36.31
2017-03-04T02:19:09.433Z,36.41
2017-03-04T02:20:19.715Z,36.41
2017-03-04T02:21:30.376Z,36.21
2017-03-04T02:22:40.666Z,36.21
2017-03-04T02:23:50.547Z,36.41
2017-03-04T02:25:01.354Z,36.41
2017-03-04T02:26:12.008Z,36.41
2017-03-04T02:27:22.284Z,36.41
2017-03-04T02:28:32.935Z,36.31
2017-03-04T02:29:42.830Z,36.31
2017-03-04T02:30:53.625Z,36.51
2017-03-04T02:32:03.115Z,36.51
2017-03-04T02:33:13.393Z,36.31
2017-03-04T02:34:24.053Z,36.29
2017-03-04T02:35:34.718Z,36.41
2017-03-04T02:36:44.760Z,36.41
2017-03-04T02:37:55.045Z,36.41
2017-03-04T02:39:05.718Z,36.41
2017-03-04T02:40:15.595Z,36.41
2017-03-04T02:41:26.244Z,36.31
2017-03-04T02:42:37.065Z,36.41
2017-03-04T02:43:46.942Z,36.41
2017-03-04T02:44:57.608Z,36.41
2017-03-04T02:46:08.285Z,36.41
2017-03-04T02:47:18.542Z,36.6
2017-03-04T02:48:29.358Z,36.51
2017-03-04T02:49:39.252Z,36.51
2017-03-04T02:50:48.746Z,36.49
2017-03-04T02:51:58.713Z,36.58
2017-03-04T02:53:08.594Z,36.6
2017-03-04T02:54:19.355Z,36.69
2017-03-04T02:55:30.004Z,36.6
2017-03-04T02:56:39.117Z,36.41
2017-03-04T02:57:48.244Z,36.6
2017-03-04T02:58:58.917Z,36.39
2017-03-04T03:00:08.952Z,36.51
2017-03-04T03:01:19.232Z,36.41
2017-03-04T03:02:29.891Z,36.69
2017-03-04T03:03:40.169Z,36.6
2017-03-04T03:04:50.451Z,36.51
2017-03-04T03:06:00.873Z,36.41
2017-03-04T03:07:11.145Z,36.68
2017-03-04T03:08:21.030Z,36.6
2017-03-04T03:09:31.688Z,36.69
2017-03-04T03:10:41.992Z,36.68
2017-03-04T03:11:52.764Z,36.6
2017-03-04T03:13:03.453Z,36.69
2017-03-04T03:14:13.751Z,36.69
2017-03-04T03:15:23.260Z,36.6
2017-03-04T03:16:33.535Z,36.6
2017-03-04T03:17:44.305Z,36.41
2017-03-04T03:18:54.575Z,36.6
2017-03-04T03:20:04.457Z,36.58
2017-03-04T03:21:14.721Z,36.6
2017-03-04T03:22:25.402Z,36.51
2017-03-04T03:23:37.806Z,36.6
2017-03-04T03:24:48.089Z,36.6
2017-03-04T03:25:58.372Z,36.58
2017-03-04T03:27:09.019Z,36.69
2017-03-04T03:28:18.880Z,36.69
2017-03-04T03:29:29.301Z,36.6
2017-03-04T03:30:39.959Z,36.68
2017-03-04T03:31:49.851Z,36.79
2017-03-04T03:32:59.724Z,36.58
2017-03-04T03:34:10.036Z,36.6
2017-03-04T03:35:19.676Z,36.6
2017-03-04T03:36:30.333Z,36.41
2017-03-04T03:37:40.606Z,36.6
2017-03-04T03:38:50.513Z,36.58
2017-03-04T03:40:01.174Z,36.68
2017-03-04T03:41:11.611Z,36.6
2017-03-04T03:42:22.307Z,36.69
2017-03-04T03:43:32.560Z,36.6
2017-03-04T03:44:42.421Z,36.69
2017-03-04T03:45:53.071Z,36.58
2017-03-04T03:47:03.501Z,36.58
2017-03-04T03:48:12.992Z,36.58
2017-03-04T03:49:23.253Z,36.58
2017-03-04T03:50:33.916Z,36.58
2017-03-04T03:51:44.217Z,36.6
2017-03-04T03:52:54.637Z,36.68
2017-03-04T03:54:04.525Z,36.58
2017-03-04T03:55:14.779Z,36.68
2017-03-04T03:56:25.051Z,36.68
2017-03-04T03:57:34.933Z,36.68
2017-03-04T03:58:45.745Z,36.58
2017-03-04T03:59:56.013Z,36.58
2017-03-04T04:01:06.662Z,36.58
2017-03-04T04:02:17.317Z,36.6
2017-03-04T04:03:27.609Z,36.49
2017-03-04T04:04:38.417Z,36.49
2017-03-04T04:05:49.075Z,36.49
2017-03-04T04:06:59.363Z,36.58
2017-03-04T04:08:09.657Z,36.58
2017-03-04T04:09:19.918Z,36.68
2017-03-04T04:10:30.495Z,36.68
2017-03-04T04:11:40.364Z,36.69
2017-03-04T04:12:51.031Z,36.58
2017-03-04T04:14:01.311Z,36.58
2017-03-04T04:15:11.960Z,36.58
2017-03-04T04:16:22.773Z,36.49
2017-03-04T04:17:33.065Z,36.58
2017-03-04T04:18:43.333Z,36.49
2017-03-04T04:19:53.604Z,36.58
2017-03-04T04:21:04.341Z,36.58
2017-03-04T04:22:15.039Z,36.58
2017-03-04T04:23:25.301Z,36.49
2017-03-04T04:24:35.589Z,36.58
2017-03-04T04:25:46.238Z,36.6
2017-03-04T04:26:56.896Z,36.49
2017-03-04T04:28:07.358Z,36.58
2017-03-04T04:29:17.643Z,36.58
2017-03-04T04:30:27.917Z,36.58
2017-03-04T04:31:38.191Z,36.58
2017-03-04T04:32:48.519Z,36.77
2017-03-04T04:33:58.961Z,36.58
2017-03-04T04:35:09.215Z,36.58
2017-03-04T04:36:19.474Z,36.77
2017-03-04T04:37:29.736Z,36.68
2017-03-04T04:38:39.226Z,36.77
2017-03-04T04:39:49.668Z,36.77
2017-03-04T04:41:00.300Z,36.68
2017-03-04T04:42:10.555Z,36.68
2017-03-04T04:43:21.218Z,36.58
2017-03-04T04:44:31.871Z,36.58
2017-03-04T04:45:42.273Z,36.77
2017-03-04T04:46:52.170Z,36.77
2017-03-04T04:48:02.809Z,36.68
2017-03-04T04:49:13.464Z,36.49
2017-03-04T04:50:23.358Z,36.68
2017-03-04T04:51:34.352Z,36.58
2017-03-04T04:52:45.026Z,36.68
2017-03-04T04:53:55.312Z,36.68
2017-03-04T04:55:05.987Z,36.68
2017-03-04T04:56:16.640Z,36.68
2017-03-04T04:57:27.449Z,36.77
2017-03-04T04:58:38.120Z,36.68
2017-03-04T04:59:48.786Z,36.77
2017-03-04T05:00:59.442Z,36.68
2017-03-04T05:02:09.713Z,36.58
2017-03-04T05:03:20.173Z,36.58
2017-03-04T05:04:30.466Z,36.68
2017-03-04T05:05:40.735Z,36.68
2017-03-04T05:06:51.048Z,36.68
2017-03-04T05:08:01.710Z,36.68
2017-03-04T05:09:12.145Z,36.68
2017-03-04T05:10:22.425Z,36.68
2017-03-04T05:11:33.097Z,36.68
2017-03-04T05:12:43.374Z,36.58
2017-03-04T05:13:53.663Z,36.77
2017-03-04T05:15:04.246Z,36.68
2017-03-04T05:16:14.759Z,36.58
2017-03-04T05:17:24.637Z,36.58
2017-03-04T05:18:34.906Z,36.77
2017-03-04T05:19:44.774Z,36.58
2017-03-04T05:20:55.538Z,36.68
2017-03-04T05:22:05.422Z,36.58
2017-03-04T05:23:15.702Z,36.77
2017-03-04T05:24:26.357Z,36.58
2017-03-04T05:25:36.641Z,36.79
2017-03-04T05:26:47.431Z,36.68
2017-03-04T05:27:58.125Z,36.87
2017-03-04T05:29:08.394Z,36.87
2017-03-04T05:30:18.656Z,36.87
2017-03-04T05:31:28.157Z,36.87
2017-03-04T05:32:38.531Z,36.89
2017-03-04T05:33:49.185Z,36.89
2017-03-04T05:34:59.062Z,36.49
2017-03-04T05:36:09.385Z,36.87
2017-03-04T05:37:20.064Z,36.49
2017-03-04T05:38:30.441Z,36.58
2017-03-04T05:39:41.115Z,36.49
2017-03-04T05:40:50.598Z,36.51
2017-03-04T05:42:00.878Z,36.87
2017-03-04T05:43:11.138Z,36.49
2017-03-04T05:44:21.517Z,36.77
2017-03-04T05:45:31.784Z,36.58
2017-03-04T05:46:41.663Z,36.51
2017-03-04T05:47:52.327Z,36.6
2017-03-04T05:49:02.602Z,36.58
2017-03-04T05:50:13.056Z,36.58
2017-03-04T05:51:23.744Z,36.87
2017-03-04T05:52:33.652Z,36.69
2017-03-04T05:53:43.535Z,36.58
2017-03-04T05:54:53.023Z,36.58
2017-03-04T05:56:03.832Z,36.58
2017-03-04T05:57:14.487Z,36.69
2017-03-04T05:58:24.765Z,36.69
2017-03-04T05:59:35.031Z,36.69
2017-03-04T06:00:45.818Z,36.68
2017-03-04T06:01:56.653Z,36.68
2017-03-04T06:03:06.559Z,36.69
2017-03-04T06:04:16.834Z,36.6
2017-03-04T06:05:27.098Z,36.69
2017-03-04T06:06:37.772Z,36.69
2017-03-04T06:07:48.584Z,36.69
2017-03-04T06:08:58.894Z,36.68
2017-03-04T06:10:09.164Z,36.68
2017-03-04T06:11:19.443Z,36.6
2017-03-04T06:12:28.951Z,36.51
2017-03-04T06:13:39.684Z,36.51
2017-03-04T06:14:50.342Z,36.69
2017-03-04T06:16:00.611Z,36.79
2017-03-04T06:17:10.490Z,36.6
2017-03-04T06:18:21.158Z,36.6
2017-03-04T06:19:30.814Z,36.6
2017-03-04T06:20:40.693Z,36.6
2017-03-04T06:21:50.577Z,36.79
2017-03-04T06:23:01.243Z,36.6
2017-03-04T06:24:11.502Z,36.79
2017-03-04T06:25:21.542Z,36.6
2017-03-04T06:26:31.412Z,36.51
2017-03-04T06:27:41.679Z,36.51
2017-03-04T06:28:51.988Z,36.69
2017-03-04T06:30:02.679Z,36.89
2017-03-04T06:31:13.114Z,36.69
2017-03-04T06:32:22.993Z,36.69
2017-03-04T06:33:32.891Z,36.89
2017-03-04T06:34:42.450Z,36.89
2017-03-04T06:35:52.724Z,36.69
2017-03-04T06:37:03.158Z,36.79
2017-03-04T06:38:13.439Z,36.69
2017-03-04T06:39:23.711Z,36.69
2017-03-04T06:40:34.384Z,36.79
2017-03-04T06:41:44.706Z,36.6
2017-03-04T06:42:55.140Z,36.79
2017-03-04T06:44:05.827Z,36.69
2017-03-04T06:45:16.119Z,36.6
2017-03-04T06:46:26.399Z,36.79
2017-03-04T06:47:36.690Z,36.89
2017-03-04T06:48:47.114Z,36.79
2017-03-04T06:49:57.771Z,36.79
2017-03-04T06:51:08.053Z,36.89
2017-03-04T06:52:18.719Z,36.89
2017-03-04T06:53:28.980Z,36.89
2017-03-04T06:54:39.433Z,36.89
2017-03-04T06:55:50.081Z,36.69
2017-03-04T06:57:00.332Z,36.89
2017-03-04T06:58:10.614Z,36.89
2017-03-04T06:59:20.493Z,36.89
2017-03-04T07:00:30.520Z,36.69
2017-03-04T07:01:41.169Z,36.89
2017-03-04T07:02:51.823Z,36.89
2017-03-04T07:04:02.486Z,36.79
2017-03-04T07:05:12.358Z,36.89
2017-03-04T07:06:22.817Z,36.69
2017-03-04T07:07:33.112Z,36.69
2017-03-04T07:08:43.399Z,36.79
2017-03-04T07:09:53.675Z,36.69
2017-03-04T07:11:04.344Z,36.69
2017-03-04T07:12:14.761Z,36.6
2017-03-04T07:13:24.643Z,36.6
2017-03-04T07:14:34.896Z,36.69
2017-03-04T07:15:45.558Z,36.69
2017-03-04T07:16:55.901Z,36.6
2017-03-04T07:18:06.324Z,36.69
2017-03-04T07:19:16.603Z,36.6
2017-03-04T07:20:26.897Z,36.89
2017-03-04T07:21:37.167Z,36.6
2017-03-04T07:22:47.074Z,36.79
2017-03-04T07:23:57.681Z,36.89
2017-03-04T07:25:08.354Z,36.6
2017-03-04T07:26:19.000Z,36.69
2017-03-04T07:27:29.686Z,36.69
2017-03-04T07:28:39.982Z,36.69
2017-03-04T07:29:50.438Z,36.79
2017-03-04T07:30:59.924Z,36.69
2017-03-04T07:32:10.245Z,36.69
2017-03-04T07:33:20.923Z,36.79
2017-03-04T07:34:30.805Z,36.79
2017-03-04T07:35:41.591Z,36.69
2017-03-04T07:36:51.790Z,36.69
2017-03-04T07:38:02.472Z,36.51
2017-03-04T07:39:12.742Z,36.51
2017-03-04T07:40:23.030Z,36.6
2017-03-04T07:41:32.671Z,36.69
2017-03-04T07:42:42.159Z,36.6
2017-03-04T07:43:52.857Z,36.69
2017-03-04T07:45:03.532Z,36.43
2017-03-04T07:46:13.810Z,36.23
2017-03-04T07:47:24.182Z,35.94
2017-03-04T07:48:34.504Z,36.33
2017-03-04T07:49:44.783Z,36.13
2017-03-04T07:50:55.452Z,36.04
2017-03-04T07:52:05.705Z,35.94
2017-03-04T07:53:15.697Z,35.94
2017-03-04T07:54:25.992Z,35.75
2017-03-04T07:55:36.269Z,35.67
2017-03-04T07:56:46.926Z,35.46
2017-03-04T07:57:56.808Z,35.48
2017-03-04T07:59:07.063Z,35.28
2017-03-04T08:00:16.960Z,35.38
2017-03-04T08:01:27.637Z,35.19
2017-03-04T08:02:38.324Z,35
2017-03-04T08:03:48.238Z,35.19
2017-03-04T08:04:58.854Z,35.1
2017-03-04T08:06:09.131Z,35.02
2017-03-04T08:07:19.794Z,35.11
2017-03-04T08:08:30.471Z,35.02
2017-03-04T08:09:41.159Z,35.02
2017-03-04T08:10:51.597Z,35.21
2017-03-04T08:12:02.256Z,34.92
2017-03-04T08:13:12.534Z,35.3
2017-03-04T08:14:22.829Z,34.63
2017-03-04T08:15:33.124Z,34.63
2017-03-04T08:16:43.146Z,34.53
2017-03-04T08:17:53.825Z,35.22
2017-03-04T08:19:04.111Z,34.55
2017-03-04T08:20:14.047Z,34.94
2017-03-04T08:21:24.332Z,34.55
2017-03-04T08:22:34.757Z,35.13
2017-03-04T08:23:45.060Z,34.45
2017-03-04T08:24:54.576Z,34.45
2017-03-04T08:26:04.096Z,34.94
2017-03-04T08:27:13.997Z,34.16
2017-03-04T08:28:24.810Z,34.26
2017-03-04T08:29:35.091Z,34.74
2017-03-04T08:30:45.363Z,34.36
2017-03-04T08:31:55.241Z,34.45
2017-03-04T08:33:05.935Z,34.56
2017-03-04T08:34:16.370Z,34.28
2017-03-04T08:35:27.055Z,34.28
2017-03-04T08:36:37.702Z,34.47
2017-03-04T08:37:48.000Z,34.08
2017-03-04T08:38:58.342Z,34.08
2017-03-04T08:40:08.790Z,34.1
2017-03-04T08:41:19.071Z,34.1
2017-03-04T08:42:29.037Z,33.91
2017-03-04T08:43:39.789Z,33.62
2017-03-04T08:44:50.494Z,33.62
2017-03-04T08:46:01.323Z,33.81
2017-03-04T08:47:11.979Z,33.72
2017-03-04T08:48:22.348Z,33.23
2017-03-04T08:49:33.595Z,33.23
2017-03-04T08:50:44.466Z,33.33
2017-03-04T08:51:54.536Z,33.52
2017-03-04T08:53:04.866Z,33.63
2017-03-04T08:54:15.190Z,33.34
2017-03-04T08:55:25.526Z,33.44
2017-03-04T08:56:35.489Z,33.63
2017-03-04T08:57:45.915Z,33.34
2017-03-04T08:58:56.792Z,33.44
2017-03-04T09:00:07.023Z,33.25
2017-03-04T09:01:17.346Z,33.26
2017-03-04T09:02:27.655Z,33.17
2017-03-04T09:03:37.717Z,33.36
2017-03-04T09:04:47.663Z,32.97
2017-03-04T09:05:57.976Z,33.07
2017-03-04T09:07:08.570Z,32.78
2017-03-04T09:08:17.744Z,32.97
2017-03-04T09:09:28.538Z,32.89
2017-03-04T09:10:39.410Z,33.07
2017-03-04T09:11:50.107Z,32.99
2017-03-04T09:12:59.645Z,32.89
2017-03-04T09:14:10.696Z,32.99
2017-03-04T09:15:21.714Z,32.99
2017-03-04T09:16:31.258Z,32.89
2017-03-04T09:17:41.583Z,32.79
2017-03-04T09:18:52.561Z,32.89
2017-03-04T09:20:03.274Z,32.89
2017-03-04T09:21:13.753Z,32.99
2017-03-04T09:22:24.092Z,32.99
2017-03-04T09:23:33.974Z,33.09
2017-03-04T09:24:44.644Z,33.09
2017-03-04T09:25:54.922Z,33.28
2017-03-04T09:27:05.343Z,33.28
2017-03-04T09:28:15.618Z,33.18
2017-03-04T09:29:26.299Z,33.28
2017-03-04T09:30:36.614Z,33.18
2017-03-04T09:31:46.873Z,32.99
2017-03-04T09:32:57.710Z,33.37
2017-03-04T09:34:08.387Z,33.57
2017-03-04T09:35:19.039Z,33.37
2017-03-04T09:36:29.317Z,33.09
2017-03-04T09:37:40.280Z,33.37
2017-03-04T09:38:50.652Z,33.57
2017-03-04T09:40:01.308Z,33.37
2017-03-04T09:41:11.595Z,33.86
2017-03-04T09:42:22.272Z,33.76
2017-03-04T09:43:32.150Z,33.47
2017-03-04T09:44:42.526Z,33.76
2017-03-04T09:45:52.827Z,33.86
2017-03-04T09:47:02.720Z,34.25
2017-03-04T09:48:13.395Z,34.15
2017-03-04T09:49:24.052Z,34.25
2017-03-04T09:50:34.068Z,34.05
2017-03-04T09:51:44.744Z,34.44
2017-03-04T09:52:55.397Z,34.44
2017-03-04T09:54:05.689Z,34.34
2017-03-04T09:55:16.345Z,34.54
2017-03-04T09:56:26.750Z,34.25
2017-03-04T09:57:36.637Z,34.44
2017-03-04T09:58:47.324Z,34.73
2017-03-04T09:59:57.603Z,34.44
2017-03-04T10:01:08.171Z,34.54
2017-03-04T10:02:18.872Z,34.62
2017-03-04T10:03:28.765Z,34.71
2017-03-04T10:04:39.034Z,34.83
2017-03-04T10:05:49.694Z,35.29
2017-03-04T10:07:00.379Z,35.2
2017-03-04T10:08:10.824Z,35.1
2017-03-04T10:09:20.741Z,35.2
2017-03-04T10:10:31.430Z,35.29
2017-03-04T10:11:41.352Z,35.2
2017-03-04T10:12:52.007Z,35.29
2017-03-04T10:14:02.437Z,35.2
2017-03-04T10:15:12.725Z,35.68
2017-03-04T10:16:22.998Z,35.49
2017-03-04T10:17:33.680Z,35.58
2017-03-04T10:18:44.351Z,35.57
2017-03-04T10:19:54.935Z,35.86
2017-03-04T10:21:04.075Z,35.86
2017-03-04T10:22:14.761Z,36.05
2017-03-04T10:23:25.036Z,36.15
2017-03-04T10:24:35.313Z,35.76
2017-03-04T10:25:46.131Z,36.24
2017-03-04T10:26:56.405Z,36.15
2017-03-04T10:28:07.069Z,36.34
2017-03-04T10:29:17.339Z,36.44
2017-03-04T10:30:27.993Z,36.05
2017-03-04T10:31:38.817Z,36.44
2017-03-04T10:32:49.464Z,36.34
2017-03-04T10:34:00.115Z,36.44
2017-03-04T10:35:10.788Z,36.44
2017-03-04T10:36:21.053Z,36.53
2017-03-04T10:37:31.659Z,36.34
2017-03-04T10:38:42.320Z,36.44
2017-03-04T10:39:52.582Z,36.63
2017-03-04T10:41:02.899Z,36.34
2017-03-04T10:42:13.606Z,36.34
2017-03-04T10:43:24.405Z,36.53
2017-03-04T10:44:34.670Z,36.44
2017-03-04T10:45:44.958Z,36.44
2017-03-04T10:46:55.649Z,36.53
2017-03-04T10:48:05.923Z,36.44
2017-03-04T10:49:16.753Z,36.63
2017-03-04T10:50:27.030Z,36.63
2017-03-04T10:51:36.899Z,36.82
2017-03-04T10:52:47.564Z,36.72
2017-03-04T10:53:58.218Z,36.72
2017-03-04T10:55:08.249Z,36.92
2017-03-04T10:56:18.519Z,36.82
2017-03-04T10:57:28.795Z,36.9
2017-03-04T10:58:39.454Z,37.02
2017-03-04T10:59:49.712Z,36.92
2017-03-04T11:01:00.126Z,36.82
2017-03-04T11:02:10.801Z,36.63
2017-03-04T11:03:21.073Z,36.72
2017-03-04T11:04:32.013Z,37.02
2017-03-04T11:05:42.284Z,37.02
2017-03-04T11:06:52.303Z,37.12
2017-03-04T11:08:01.820Z,37.02
2017-03-04T11:09:12.133Z,37.12
2017-03-04T11:10:22.804Z,37.12
2017-03-04T11:11:33.092Z,36.92
2017-03-04T11:12:43.131Z,37.19
2017-03-04T11:13:53.816Z,36.92
2017-03-04T11:15:04.085Z,37.3
2017-03-04T11:16:14.358Z,37.12
2017-03-04T11:17:25.035Z,37.21
2017-03-04T11:18:35.837Z,37.12
2017-03-04T11:19:46.116Z,37.02
2017-03-04T11:20:56.419Z,37.12
2017-03-04T11:22:07.089Z,37.4
2017-03-04T11:23:17.377Z,37.29
2017-03-04T11:24:28.180Z,37.21
2017-03-04T11:25:38.481Z,37.38
2017-03-04T11:26:48.755Z,37.29
2017-03-04T11:27:59.414Z,37.29
2017-03-04T11:29:10.091Z,37.48
2017-03-04T11:30:20.139Z,37.58
2017-03-04T11:31:30.023Z,37.58
2017-03-04T11:32:40.721Z,37.67
2017-03-04T11:33:50.636Z,37.67
2017-03-04T11:35:01.320Z,37.67
2017-03-04T11:36:12.152Z,37.67
2017-03-04T11:37:22.030Z,37.67
2017-03-04T11:38:31.954Z,37.58
2017-03-04T11:39:42.238Z,37.67
2017-03-04T11:40:52.914Z,37.67
2017-03-04T11:42:03.381Z,37.67
2017-03-04T11:43:14.082Z,37.77
2017-03-04T11:44:23.956Z,37.67
2017-03-04T11:45:34.256Z,37.48
2017-03-04T11:46:44.544Z,37.77
2017-03-04T11:47:54.597Z,37.87
2017-03-04T11:49:04.882Z,37.77
2017-03-04T11:50:14.376Z,37.87
2017-03-04T11:51:24.259Z,37.77
2017-03-04T11:52:34.959Z,37.87
2017-03-04T11:53:44.963Z,37.67
2017-03-04T11:54:55.288Z,37.77
2017-03-04T11:56:05.185Z,37.67
2017-03-04T11:57:15.879Z,38.06
2017-03-04T11:58:26.178Z,37.96
2017-03-04T11:59:36.470Z,37.87
2017-03-04T12:00:46.751Z,37.96
2017-03-04T12:01:57.042Z,37.77
2017-03-04T12:03:07.740Z,37.67
2017-03-04T12:04:18.036Z,37.67
2017-03-04T12:05:28.847Z,37.87
2017-03-04T12:06:39.513Z,37.77
2017-03-04T12:07:49.414Z,37.87
2017-03-04T12:08:59.678Z,37.77
2017-03-04T12:10:10.345Z,37.77
2017-03-04T12:11:20.704Z,37.67
2017-03-04T12:12:30.973Z,37.87
2017-03-04T12:13:41.255Z,37.77
2017-03-04T12:14:51.938Z,37.87
2017-03-04T12:16:02.229Z,37.96
2017-03-04T12:17:12.998Z,37.87
2017-03-04T12:18:22.901Z,37.87
2017-03-04T12:19:33.179Z,37.87
2017-03-04T12:20:43.086Z,38.16
2017-03-04T12:21:52.986Z,37.96
2017-03-04T12:23:03.415Z,38.06
2017-03-04T12:24:14.105Z,38.16
2017-03-04T12:25:24.798Z,38.06
2017-03-04T12:26:34.721Z,38.06
2017-03-04T12:27:45.006Z,38.06
2017-03-04T12:28:55.041Z,38.16
2017-03-04T12:30:05.349Z,37.96
2017-03-04T12:31:15.629Z,38.25
2017-03-04T12:32:25.905Z,38.06
2017-03-04T12:33:36.583Z,38.16
2017-03-04T12:34:47.397Z,38.06
2017-03-04T12:35:57.685Z,38.06
2017-03-04T12:37:08.340Z,37.96
2017-03-04T12:38:19.029Z,37.87
2017-03-04T12:39:28.925Z,38.16
2017-03-04T12:40:39.345Z,37.87
2017-03-04T12:41:49.264Z,38.16
2017-03-04T12:42:59.958Z,38.25
2017-03-04T12:44:10.224Z,38.06
2017-03-04T12:45:20.923Z,38.06
2017-03-04T12:46:31.754Z,38.06
2017-03-04T12:47:42.052Z,38.25
2017-03-04T12:48:52.337Z,38.06
2017-03-04T12:50:02.247Z,37.96
2017-03-04T12:51:12.534Z,38.06
2017-03-04T12:52:22.594Z,38.16
2017-03-04T12:53:32.485Z,38.35
2017-03-04T12:54:42.799Z,38.06
2017-03-04T12:55:52.704Z,38.06
2017-03-04T12:57:02.610Z,38.25
2017-03-04T12:58:13.070Z,38.35
2017-03-04T12:59:22.585Z,38.25
2017-03-04T13:00:33.278Z,38.45
2017-03-04T13:01:43.933Z,38.25
2017-03-04T13:02:54.219Z,38.35
2017-03-04T13:04:05.073Z,38.35
2017-03-04T13:05:14.624Z,38.45
2017-03-04T13:06:24.899Z,38.45
2017-03-04T13:07:35.579Z,38.54
2017-03-04T13:08:45.892Z,38.45
2017-03-04T13:09:56.747Z,38.45
2017-03-04T13:11:06.623Z,38.54
2017-03-04T13:12:17.300Z,38.54
2017-03-04T13:13:27.193Z,38.45
2017-03-04T13:14:37.852Z,38.54
2017-03-04T13:15:47.885Z,38.35
2017-03-04T13:16:58.246Z,38.54
2017-03-04T13:18:08.929Z,38.35
2017-03-04T13:19:18.811Z,38.25
2017-03-04T13:20:29.065Z,38.25
2017-03-04T13:21:39.092Z,38.35
2017-03-04T13:22:49.749Z,38.25
2017-03-04T13:23:59.651Z,38.25
2017-03-04T13:25:09.930Z,38.35
2017-03-04T13:26:20.599Z,38.45
2017-03-04T13:27:31.039Z,38.35
2017-03-04T13:28:40.587Z,38.35
2017-03-04T13:29:50.998Z,38.35
2017-03-04T13:31:01.301Z,38.35
2017-03-04T13:32:11.601Z,38.25
2017-03-04T13:33:21.630Z,38.35
2017-03-04T13:34:31.182Z,38.16
2017-03-04T13:35:41.072Z,38.16
2017-03-04T13:36:51.336Z,38.45
2017-03-04T13:38:02.311Z,38.35
2017-03-04T13:39:12.336Z,38.54
2017-03-04T13:40:22.999Z,38.54
2017-03-04T13:41:33.291Z,38.45
2017-03-04T13:42:42.800Z,38.45
2017-03-04T13:43:53.456Z,38.54
2017-03-04T13:45:04.307Z,38.16
2017-03-04T13:46:14.624Z,38.35
2017-03-04T13:47:25.293Z,38.35
2017-03-04T13:48:35.567Z,38.64
2017-03-04T13:49:45.902Z,38.54
2017-03-04T13:50:56.338Z,38.64
2017-03-04T13:52:06.247Z,38.54
2017-03-04T13:53:16.520Z,38.83
2017-03-04T13:54:26.810Z,38.64
2017-03-04T13:55:37.478Z,38.64
2017-03-04T13:56:47.861Z,38.64
2017-03-04T13:57:57.796Z,38.74
2017-03-04T13:59:07.679Z,38.74
2017-03-04T14:00:17.948Z,38.83
2017-03-04T14:01:27.835Z,38.74
2017-03-04T14:02:37.833Z,38.53
2017-03-04T14:03:47.759Z,38.93
2017-03-04T14:04:58.045Z,38.83
2017-03-04T14:06:08.330Z,38.81
2017-03-04T14:07:18.255Z,38.64
2017-03-04T14:08:28.281Z,38.81
2017-03-04T14:09:38.560Z,38.83
2017-03-04T14:10:49.253Z,38.83
2017-03-04T14:11:59.547Z,38.74
2017-03-04T14:13:09.500Z,38.83
2017-03-04T14:14:19.909Z,38.53
2017-03-04T14:15:30.392Z,38.53
2017-03-04T14:16:40.721Z,38.62
2017-03-04T14:17:51.392Z,38.74
2017-03-04T14:19:01.717Z,38.83
2017-03-04T14:20:12.487Z,38.74
2017-03-04T14:21:22.794Z,38.64
2017-03-04T14:22:33.096Z,38.62
2017-03-04T14:23:43.511Z,38.64
2017-03-04T14:24:53.863Z,38.64
2017-03-04T14:26:04.684Z,38.54
2017-03-04T14:27:14.210Z,38.54
2017-03-04T14:28:24.886Z,38.54
2017-03-04T14:29:35.566Z,38.16
2017-03-04T14:30:45.131Z,38.45
2017-03-04T14:31:55.585Z,38.35
2017-03-04T14:33:06.280Z,38.35
2017-03-04T14:34:16.583Z,38.25
2017-03-04T14:35:26.879Z,38.35
2017-03-04T14:36:36.405Z,38.54
2017-03-04T14:37:47.576Z,38.35
2017-03-04T14:38:58.284Z,38.16
2017-03-04T14:40:08.583Z,38.06
2017-03-04T14:41:18.875Z,37.98
2017-03-04T14:42:29.164Z,37.88
2017-03-04T14:43:39.611Z,37.98
2017-03-04T14:44:49.909Z,38.08
2017-03-04T14:46:00.593Z,37.87
2017-03-04T14:47:10.888Z,37.79
2017-03-04T14:48:21.182Z,37.88
2017-03-04T14:49:31.656Z,37.79
2017-03-04T14:50:42.343Z,37.79
2017-03-04T14:51:52.632Z,37.88
2017-03-04T14:53:02.980Z,37.79
2017-03-04T14:54:13.285Z,37.79
2017-03-04T14:55:23.344Z,37.7
2017-03-04T14:56:33.667Z,37.7
2017-03-04T14:57:43.581Z,37.7
2017-03-04T14:58:53.874Z,37.88
2017-03-04T15:00:04.161Z,37.98
2017-03-04T15:01:14.649Z,37.7
2017-03-04T15:02:24.926Z,37.7
2017-03-04T15:03:35.204Z,37.7
2017-03-04T15:04:45.149Z,37.79
2017-03-04T15:05:55.455Z,37.7
2017-03-04T15:07:06.271Z,37.7
2017-03-04T15:08:16.192Z,37.88